Terminal Aerodrome Forecast
Issued by NWS

Home | Current Version | Previous Version | Text Only | Print | Product List | Glossary On
Versions: 1 2 3 4 5 6 7 8 9 10 11 12 13 14 15 16 17 18 19 20 21
000
FTUS44 KEPZ 190539
TAFLRU
TAF
KLRU 190539Z 1906/2006 27008KT P6SM SCT030 SCT040 BKN060
     FM191500 24015G25KT P6SM FEW150 BKN250
     FM192000 26022G32KT P6SM FEW150 BKN250
     FM200200 27010KT P6SM SCT150 BKN250=

USA.gov is the U.S. government's official web portal to all federal, state and local government web resources and services.